createdAt,value
2023-12-11T00:03:15.336Z,99625.88
2023-12-11T00:08:16.952Z,99628.31
2023-12-11T00:13:18.576Z,99627.47
2023-12-11T00:18:20.248Z,99620.03
2023-12-11T00:23:21.902Z,99623.78
2023-12-11T00:28:23.539Z,99616.94
2023-12-11T00:33:25.256Z,99609.44
2023-12-11T00:38:26.874Z,99605.88
2023-12-11T00:43:28.479Z,99601.28
2023-12-11T00:48:46.223Z,99591.09
2023-12-11T00:53:48.816Z,99591.19
2023-12-11T00:58:50.408Z,99583.31
2023-12-11T01:03:52.008Z,99592.69
2023-12-11T01:08:53.586Z,99582.66
2023-12-11T01:13:55.145Z,99566.16
2023-12-11T01:18:56.847Z,99560.34
2023-12-11T01:23:58.646Z,99552.47
2023-12-11T01:29:00.241Z,99549.09
2023-12-11T01:34:01.931Z,99546.28
2023-12-11T01:39:04.023Z,99541.03
2023-12-11T01:44:05.596Z,99534.09
2023-12-11T01:49:07.372Z,99522.94
2023-12-11T01:54:09.014Z,99517.69
2023-12-11T01:59:11.190Z,99517.88
2023-12-11T02:04:12.942Z,99511.03
2023-12-11T02:09:14.773Z,99501.53
2023-12-11T02:14:16.417Z,99501.53
2023-12-11T02:19:18.140Z,99492.66
2023-12-11T02:24:24.332Z,99489.81
2023-12-11T02:29:25.985Z,99503.16
2023-12-11T02:34:27.655Z,99484.69
2023-12-11T02:39:29.277Z,99471.53
2023-12-11T02:44:30.895Z,99475.44
2023-12-11T02:49:32.575Z,99465.88
2023-12-11T02:54:34.180Z,99451.16
2023-12-11T02:59:35.810Z,99449.44
2023-12-11T03:04:37.441Z,99442.31
2023-12-11T03:09:39.107Z,99432.81
2023-12-11T03:14:40.680Z,99432.44
2023-12-11T03:19:42.399Z,99429.25
2023-12-11T03:24:44.109Z,99418.81
2023-12-11T03:29:45.710Z,99410.91
2023-12-11T03:34:47.398Z,99405.09
2023-12-11T03:39:49.132Z,99397.25
2023-12-11T03:44:50.924Z,99396.22
2023-12-11T03:49:52.850Z,99389.97
2023-12-11T03:54:54.530Z,99390.81
2023-12-11T03:59:56.122Z,99379.78
2023-12-11T04:04:57.771Z,99381.03
2023-12-11T04:09:59.532Z,99379.88
2023-12-11T04:15:01.130Z,99375.28
2023-12-11T04:20:03.099Z,99376.66
2023-12-11T04:25:05.286Z,99361.22
2023-12-11T04:30:07.401Z,99361.00
2023-12-11T04:35:09.172Z,99370.47
2023-12-11T04:40:11.385Z,99362.59
2023-12-11T04:45:13.207Z,99359.09
2023-12-11T04:50:14.907Z,99360.31
2023-12-11T04:55:17.042Z,99351.78
2023-12-11T05:00:19.570Z,99340.69
2023-12-11T05:05:21.233Z,99348.38
2023-12-11T05:10:22.918Z,99339.59
2023-12-11T05:15:24.484Z,99329.09
2023-12-11T05:20:26.028Z,99326.25
2023-12-11T05:25:27.568Z,99330.66
2023-12-11T05:30:29.264Z,99315.97
2023-12-11T05:35:30.864Z,99322.63
2023-12-11T05:40:32.524Z,99312.19
2023-12-11T05:45:34.287Z,99321.03
2023-12-11T05:50:37.135Z,99325.09
2023-12-11T05:55:39.900Z,99314.56
2023-12-11T06:00:41.658Z,99312.34
2023-12-11T06:05:43.631Z,99300.56
2023-12-11T06:10:45.281Z,99281.06
2023-12-11T06:15:47.106Z,99280.13
2023-12-11T06:20:49.050Z,99267.41
2023-12-11T06:25:50.604Z,99272.44
2023-12-11T06:30:52.467Z,99265.06
2023-12-11T06:35:54.108Z,99253.09
2023-12-11T06:40:55.679Z,99248.56
2023-12-11T06:45:57.694Z,99253.25
2023-12-11T06:50:59.249Z,99253.25
2023-12-11T06:56:00.866Z,99241.50
2023-12-11T07:01:02.567Z,99229.63
2023-12-11T07:06:04.579Z,99223.44
2023-12-11T07:11:06.314Z,99235.78
2023-12-11T07:16:08.261Z,99237.38
2023-12-11T07:21:10.752Z,99243.09
2023-12-11T07:26:12.374Z,99250.94
2023-12-11T07:31:14.076Z,99254.13
2023-12-11T07:36:16.401Z,99245.13
2023-12-11T07:41:24.638Z,99260.22
2023-12-11T07:46:26.268Z,99280.91
2023-12-11T07:51:29.264Z,99314.06
2023-12-11T07:56:31.277Z,99336.28
2023-12-11T08:01:33.188Z,99351.56
2023-12-11T08:06:40.904Z,99376.66
2023-12-11T08:11:42.404Z,99393.19
2023-12-11T08:16:44.112Z,99416.41
2023-12-11T08:21:45.746Z,99435.63
2023-12-11T08:26:47.911Z,99447.34
2023-12-11T08:31:50.257Z,99485.25
2023-12-11T08:36:51.858Z,99488.63
2023-12-11T08:41:53.487Z,99528.66
2023-12-11T08:46:55.084Z,99554.16
2023-12-11T08:51:56.803Z,99561.56
2023-12-11T08:56:58.383Z,99573.66
2023-12-11T09:02:00.096Z,99598.78
2023-12-11T09:07:01.872Z,99615.94
2023-12-11T09:12:03.637Z,99645.00
2023-12-11T09:17:05.981Z,99664.41
2023-12-11T09:22:07.633Z,99672.66
2023-12-11T09:27:09.333Z,99702.94
2023-12-11T09:32:10.916Z,99716.25
2023-12-11T09:37:12.917Z,99733.03
2023-12-11T09:42:15.335Z,99741.69
2023-12-11T09:47:25.208Z,99758.13
2023-12-11T09:52:28.748Z,99770.50
2023-12-11T09:57:30.954Z,99783.69
2023-12-11T10:02:32.928Z,99798.81
2023-12-11T10:07:35.864Z,99808.47
2023-12-11T10:12:43.309Z,99816.63
2023-12-11T10:17:44.941Z,99849.25
2023-12-11T10:22:49.392Z,99849.06
2023-12-11T10:28:04.414Z,99854.31
2023-12-11T10:33:06.207Z,99865.56
2023-12-11T10:38:07.914Z,99884.09
2023-12-11T10:43:09.587Z,99894.78
2023-12-11T10:48:11.412Z,99908.31
2023-12-11T10:53:13.394Z,99916.06
2023-12-11T10:58:15.078Z,99922.88
2023-12-11T11:03:18.050Z,99928.94
2023-12-11T11:08:32.614Z,99950.44
2023-12-11T11:13:50.021Z,99966.50
2023-12-11T11:19:10.190Z,99985.19
2023-12-11T11:24:34.292Z,99978.75
2023-12-11T11:29:46.005Z,99999.91
2023-12-11T11:34:47.787Z,100008.28
2023-12-11T11:40:06.526Z,100018.84
2023-12-11T11:45:09.095Z,100023.44
2023-12-11T11:50:14.169Z,100015.41
2023-12-11T11:55:22.084Z,100030.34
2023-12-11T12:00:24.436Z,100041.88
2023-12-11T12:05:27.534Z,100055.41
2023-12-11T12:10:29.300Z,100049.44
2023-12-11T12:15:31.138Z,100074.97
2023-12-11T12:20:32.711Z,100070.94
2023-12-11T12:25:35.694Z,100083.69
2023-12-11T12:30:37.749Z,100086.41
2023-12-11T12:35:40.411Z,100100.34
2023-12-11T12:40:42.639Z,100109.00
2023-12-11T12:45:44.859Z,100110.19
2023-12-11T12:50:49.631Z,100116.94
2023-12-11T12:55:52.214Z,100135.47
2023-12-11T13:00:58.066Z,100156.56
2023-12-11T13:06:00.690Z,100150.09
2023-12-11T13:11:02.704Z,100159.97
2023-12-11T13:16:07.467Z,100168.81
2023-12-11T13:21:09.058Z,100175.78
2023-12-11T13:26:10.614Z,100182.59
2023-12-11T13:31:12.206Z,100195.31
2023-12-11T13:36:17.274Z,100205.25
2023-12-11T13:41:18.909Z,100203.50
2023-12-11T13:46:20.574Z,100194.97
2023-12-11T13:51:22.250Z,100206.69
2023-12-11T13:56:23.809Z,100224.00
2023-12-11T14:01:25.568Z,100236.75
2023-12-11T14:06:28.213Z,100240.88
2023-12-11T14:11:29.726Z,100248.25
2023-12-11T14:16:33.034Z,100253.31
2023-12-11T14:21:34.889Z,100258.09
2023-12-11T14:26:43.640Z,100253.38
2023-12-11T14:31:50.734Z,100264.41
2023-12-11T14:36:52.402Z,100264.25
2023-12-11T14:41:54.034Z,100278.84
2023-12-11T14:46:55.581Z,100287.69
2023-12-11T14:51:57.705Z,100299.41
2023-12-11T14:57:00.052Z,100307.91
2023-12-11T15:02:02.094Z,100312.00
2023-12-11T15:07:05.430Z,100321.69
2023-12-11T15:12:08.409Z,100325.44
2023-12-11T15:17:13.002Z,100322.66
2023-12-11T15:22:14.770Z,100332.88
2023-12-11T15:27:16.403Z,100348.16
2023-12-11T15:32:20.215Z,100348.16
2023-12-11T15:37:23.083Z,100349.19
2023-12-11T15:42:24.742Z,100362.41
2023-12-11T15:47:26.307Z,100378.72
2023-12-11T15:52:28.167Z,100384.44
2023-12-11T15:57:34.561Z,100383.06
2023-12-11T16:02:36.740Z,100375.91
2023-12-11T16:07:38.409Z,100404.63
2023-12-11T16:12:40.229Z,100398.63
2023-12-11T16:17:41.873Z,100399.50
2023-12-11T16:22:45.401Z,100404.25
2023-12-11T16:27:47.514Z,100393.00
2023-12-11T16:32:49.316Z,100404.72
2023-12-11T16:37:52.367Z,100409.50
2023-12-11T16:42:53.995Z,100416.97
2023-12-11T16:47:56.057Z,100423.56
2023-12-11T16:52:57.619Z,100423.84
2023-12-11T16:57:59.195Z,100438.16
2023-12-11T17:03:00.953Z,100440.97
2023-12-11T17:08:02.759Z,100449.81
2023-12-11T17:13:04.386Z,100455.41
2023-12-11T17:18:09.079Z,100453.63
2023-12-11T17:23:10.678Z,100480.69
2023-12-11T17:28:12.235Z,100471.94
2023-12-11T17:33:13.770Z,100478.81
2023-12-11T17:38:15.397Z,100483.25
2023-12-11T17:43:17.044Z,100477.38
2023-12-11T17:48:18.699Z,100492.25
2023-12-11T17:53:20.678Z,100509.59
2023-12-11T17:58:22.465Z,100503.69
2023-12-11T18:03:24.943Z,100514.13
2023-12-11T18:08:26.530Z,100514.44
2023-12-11T18:13:28.080Z,100510.69
2023-12-11T18:18:31.950Z,100509.16
2023-12-11T18:23:33.557Z,100520.75
2023-12-11T18:28:35.197Z,100517.34
2023-12-11T18:33:36.913Z,100535.47
2023-12-11T18:38:38.521Z,100541.47
2023-12-11T18:43:41.616Z,100533.38
2023-12-11T18:48:43.326Z,100539.50
2023-12-11T18:53:44.964Z,100551.38
2023-12-11T18:58:47.487Z,100565.38
2023-12-11T19:03:49.274Z,100582.34
2023-12-11T19:08:50.951Z,100567.50
2023-12-11T19:13:52.540Z,100581.50
2023-12-11T19:18:54.270Z,100575.50
2023-12-11T19:23:57.020Z,100590.16
2023-12-11T19:28:58.628Z,100586.34
2023-12-11T19:34:00.386Z,100594.03
2023-12-11T19:39:02.049Z,100606.25
2023-12-11T19:44:03.844Z,100618.47
2023-12-11T19:49:05.504Z,100620.22
2023-12-11T19:54:08.403Z,100616.63
2023-12-11T19:59:10.347Z,100617.31
2023-12-11T20:04:12.034Z,100613.75
2023-12-11T20:09:13.785Z,100615.88
2023-12-11T20:14:15.396Z,100621.69
2023-12-11T20:19:16.988Z,100623.72
2023-12-11T20:24:19.450Z,100621.25
2023-12-11T20:29:21.269Z,100631.25
2023-12-11T20:34:22.931Z,100634.97
2023-12-11T20:39:24.526Z,100626.81
2023-12-11T20:44:26.066Z,100644.03
2023-12-11T20:49:27.699Z,100645.16
2023-12-11T20:54:29.280Z,100646.72
2023-12-11T20:59:30.863Z,100643.09
2023-12-11T21:04:32.437Z,100651.19
2023-12-11T21:09:34.013Z,100661.31
2023-12-11T21:14:35.570Z,100665.16
2023-12-11T21:19:37.223Z,100668.72
2023-12-11T21:30:08.463Z,100670.47
2023-12-11T21:35:10.028Z,100679.28
2023-12-11T21:40:12.061Z,100688.94
2023-12-11T21:45:13.632Z,100702.56
2023-12-11T21:50:15.272Z,100693.19
2023-12-11T21:55:16.887Z,100701.31
2023-12-11T22:00:18.665Z,100700.59
2023-12-11T22:05:20.294Z,100703.09
2023-12-11T22:10:21.934Z,100717.75
2023-12-11T22:15:23.516Z,100710.97
2023-12-11T22:20:25.291Z,100717.69
2023-12-11T22:25:26.832Z,100722.44
2023-12-11T22:30:28.442Z,100716.91
2023-12-11T22:35:30.001Z,100714.97
2023-12-11T22:40:31.605Z,100718.44
2023-12-11T22:45:33.149Z,100715.34
2023-12-11T22:50:34.715Z,100733.31
2023-12-11T22:55:36.336Z,100731.00
2023-12-11T23:00:37.950Z,100732.03
2023-12-11T23:05:39.607Z,100743.44
2023-12-11T23:10:41.206Z,100747.91
2023-12-11T23:15:42.771Z,100747.59
2023-12-11T23:20:44.472Z,100749.75
2023-12-11T23:25:54.501Z,100744.44
2023-12-11T23:31:00.494Z,100729.22
2023-12-11T23:36:02.075Z,100726.66
2023-12-11T23:41:03.941Z,100725.88
2023-12-11T23:46:05.525Z,100726.44
2023-12-11T23:51:07.182Z,100729.16
2023-12-11T23:56:09.220Z,100734.44
